Time;durP1;ratioP1;P1;durP2;ratioP2;P2;SDS_P1;SDS_P2;PMS_P1;PMS_P2;Temp;Humidity;BMP_temperature;BMP_pressure;BME280_temperature;BME280_humidity;BME280_pressure;Samples;Min_cycle;Max_cycle;Signal;HPM_P1;HPM_P2
2021/08/03 00:01:36;;;;;;;1.70;1.40;;;14.70;99.90;;;;;;5093733;28;20513;-70
2021/08/03 00:04:10;;;;;;;2.17;1.60;;;14.70;99.90;;;;;;5093978;28;20270;-69
2021/08/03 00:06:47;;;;;;;3.30;1.60;;;14.70;99.90;;;;;;5093797;28;20399;-69
2021/08/03 00:09:14;;;;;;;5.43;1.50;;;14.60;99.90;;;;;;5093723;28;20403;-68
2021/08/03 00:11:44;;;;;;;3.07;1.60;;;14.60;99.90;;;;;;5092205;28;20477;-68
2021/08/03 00:14:10;;;;;;;2.40;1.73;;;14.50;99.90;;;;;;5093726;28;20396;-69
2021/08/03 00:16:39;;;;;;;3.10;1.90;;;14.50;99.90;;;;;;5093296;28;20399;-69
2021/08/03 00:19:05;;;;;;;3.40;1.77;;;14.60;99.90;;;;;;5093480;28;20542;-69
2021/08/03 00:21:31;;;;;;;2.73;1.70;;;14.50;99.90;;;;;;5093172;28;20423;-68
2021/08/03 00:23:58;;;;;;;3.93;3.47;;;14.50;99.90;;;;;;5093219;28;20504;-68
2021/08/03 00:26:23;;;;;;;4.63;4.23;;;14.40;99.90;;;;;;5092983;28;20448;-69
2021/08/03 00:28:49;;;;;;;2.00;1.80;;;14.40;99.90;;;;;;5093168;28;20961;-69
2021/08/03 00:31:17;;;;;;;2.17;1.90;;;14.40;99.90;;;;;;5093065;28;20195;-68
2021/08/03 00:33:45;;;;;;;3.67;1.97;;;14.30;99.90;;;;;;5093314;28;20407;-68
2021/08/03 00:36:11;;;;;;;1.93;1.70;;;14.30;99.90;;;;;;5093127;28;20419;-68
2021/08/03 00:38:37;;;;;;;2.80;1.70;;;14.30;99.90;;;;;;5092921;28;20408;-68
2021/08/03 00:41:07;;;;;;;1.73;1.63;;;14.40;99.90;;;;;;5093077;28;20430;-68
2021/08/03 00:43:32;;;;;;;10.33;2.33;;;14.30;99.90;;;;;;5093037;28;20194;-68
2021/08/03 00:45:58;;;;;;;5.57;1.90;;;14.40;99.90;;;;;;5093101;28;20411;-68
2021/08/03 00:48:24;;;;;;;3.80;1.70;;;14.40;99.90;;;;;;5092857;28;20212;-68
2021/08/03 00:50:50;;;;;;;1.60;1.50;;;14.30;99.90;;;;;;5092879;28;20362;-68
2021/08/03 00:53:15;;;;;;;2.77;1.57;;;14.30;99.90;;;;;;5092714;28;20807;-68
2021/08/03 00:55:42;;;;;;;2.77;1.70;;;14.20;99.90;;;;;;5093117;28;20237;-68
2021/08/03 00:58:08;;;;;;;3.43;1.80;;;14.10;99.90;;;;;;5092744;28;20253;-69
2021/08/03 01:00:33;;;;;;;1.80;1.53;;;14.20;99.90;;;;;;5092939;28;20514;-69
2021/08/03 01:02:59;;;;;;;5.00;1.90;;;14.40;99.90;;;;;;5092704;28;20208;-70
2021/08/03 01:05:33;;;;;;;1.87;1.57;;;14.40;99.90;;;;;;5092994;28;20184;-70
2021/08/03 01:08:14;;;;;;;1.77;1.67;;;14.30;99.90;;;;;;5092479;28;20165;-71
2021/08/03 01:11:10;;;;;;;3.17;2.07;;;14.20;99.90;;;;;;5092563;28;20431;-70
2021/08/03 01:13:58;;;;;;;2.07;1.43;;;14.10;99.90;;;;;;5092668;28;20465;-70
2021/08/03 01:16:32;;;;;;;2.10;1.50;;;14.10;99.90;;;;;;5092430;28;20512;-70
2021/08/03 01:19:21;;;;;;;3.03;1.80;;;14.10;99.90;;;;;;5092432;28;20492;-70
2021/08/03 01:22:04;;;;;;;3.63;1.80;;;14.20;99.90;;;;;;5092012;28;20484;-69
2021/08/03 01:25:05;;;;;;;1.87;1.53;;;14.40;99.90;;;;;;5092295;28;20442;-69
2021/08/03 01:27:59;;;;;;;2.50;1.73;;;14.20;99.90;;;;;;5092426;28;20916;-69
2021/08/03 01:30:25;;;;;;;3.00;2.00;;;14.10;99.90;;;;;;5092135;28;20438;-69
2021/08/03 01:32:54;;;;;;;1.97;1.77;;;14.10;99.90;;;;;;5092061;28;20903;-69
2021/08/03 01:35:22;;;;;;;4.53;2.27;;;14.10;99.90;;;;;;5092007;28;20465;-69
2021/08/03 01:37:48;;;;;;;1.87;1.50;;;14.30;99.90;;;;;;5092025;28;20490;-69
2021/08/03 01:40:14;;;;;;;1.77;1.57;;;14.40;99.90;;;;;;5092231;28;20461;-69
2021/08/03 01:42:44;;;;;;;2.90;1.40;;;14.30;99.90;;;;;;5091889;28;20201;-69
2021/08/03 01:45:12;;;;;;;3.23;2.63;;;14.30;99.90;;;;;;5092064;28;20762;-69
2021/08/03 01:47:38;;;;;;;5.80;3.30;;;14.20;99.90;;;;;;5090378;28;20910;-69
2021/08/03 01:50:07;;;;;;;3.53;2.80;;;14.40;99.90;;;;;;5088925;28;20434;-68
2021/08/03 01:52:33;;;;;;;3.73;3.00;;;14.60;99.90;;;;;;5091729;28;20169;-69
2021/08/03 01:55:00;;;;;;;3.60;2.90;;;14.70;99.90;;;;;;5091939;28;20495;-69
2021/08/03 01:57:27;;;;;;;3.87;3.27;;;14.70;99.90;;;;;;5091947;28;20419;-68
2021/08/03 01:59:54;;;;;;;3.93;2.70;;;14.70;99.90;;;;;;5090523;28;20407;-68
2021/08/03 02:02:20;;;;;;;2.73;2.53;;;14.70;99.90;;;;;;5092017;28;20439;-68
2021/08/03 02:04:49;;;;;;;3.53;2.70;;;14.70;99.90;;;;;;5091920;28;20422;-68
2021/08/03 02:07:17;;;;;;;3.10;2.73;;;14.60;99.90;;;;;;5091746;28;20422;-69
2021/08/03 02:09:44;;;;;;;3.37;2.90;;;14.60;99.90;;;;;;5092189;28;20399;-69
2021/08/03 02:12:11;;;;;;;6.23;2.80;;;14.50;99.90;;;;;;5091717;28;20395;-69
2021/08/03 02:14:40;;;;;;;4.53;3.40;;;14.50;99.90;;;;;;5091798;28;20815;-69
2021/08/03 02:17:06;;;;;;;4.80;2.80;;;14.50;99.90;;;;;;5092149;28;20428;-70
2021/08/03 02:19:33;;;;;;;7.13;3.10;;;14.40;99.90;;;;;;5091815;28;20403;-69
2021/08/03 02:21:59;;;;;;;3.83;2.67;;;14.30;99.90;;;;;;5091769;28;20504;-69
2021/08/03 02:24:24;;;;;;;3.10;2.83;;;14.40;99.90;;;;;;5092092;28;20412;-70
2021/08/03 02:26:50;;;;;;;2.93;2.73;;;14.30;99.90;;;;;;5091714;28;20169;-69
2021/08/03 02:29:15;;;;;;;4.97;3.00;;;14.30;99.90;;;;;;5091620;28;20227;-71
2021/08/03 02:31:47;;;;;;;4.23;2.87;;;14.30;99.90;;;;;;5091413;28;20276;-69
2021/08/03 02:34:32;;;;;;;4.60;2.80;;;14.20;99.90;;;;;;5093255;28;20291;-69
2021/08/03 02:37:02;;;;;;;3.30;2.90;;;14.40;99.90;;;;;;5095195;28;20403;-70
2021/08/03 02:39:29;;;;;;;4.83;2.87;;;14.40;99.90;;;;;;5095344;28;20893;-69
2021/08/03 02:41:56;;;;;;;5.83;3.10;;;14.30;99.90;;;;;;5090056;28;20458;-69
2021/08/03 02:44:23;;;;;;;4.50;2.90;;;14.30;99.90;;;;;;5096574;28;20786;-69
2021/08/03 02:46:56;;;;;;;3.47;2.90;;;14.30;99.90;;;;;;5097065;28;20420;-70
2021/08/03 02:49:35;;;;;;;2.90;2.47;;;14.20;99.90;;;;;;5095645;28;20483;-68
2021/08/03 02:52:05;;;;;;;2.73;2.53;;;14.20;99.90;;;;;;5075328;28;20423;-69
2021/08/03 02:54:35;;;;;;;5.53;2.70;;;14.20;99.90;;;;;;5077456;28;20439;-68
2021/08/03 02:57:04;;;;;;;3.77;2.57;;;14.30;99.90;;;;;;5074552;28;20410;-69
2021/08/03 02:59:35;;;;;;;4.83;2.63;;;14.20;99.90;;;;;;5089262;28;20415;-69
2021/08/03 03:02:03;;;;;;;3.00;2.70;;;14.10;99.90;;;;;;5094856;28;20430;-69
2021/08/03 03:04:36;;;;;;;3.40;2.80;;;14.00;99.90;;;;;;5094722;28;20403;-69
2021/08/03 03:07:11;;;;;;;3.87;3.17;;;14.00;99.90;;;;;;5094708;28;20820;-69
2021/08/03 03:09:39;;;;;;;3.83;2.87;;;13.90;99.90;;;;;;5094857;28;20392;-69
2021/08/03 03:12:06;;;;;;;3.60;2.90;;;13.80;99.90;;;;;;5094521;28;20796;-69
2021/08/03 03:14:35;;;;;;;5.53;3.00;;;13.80;99.90;;;;;;5094677;28;20471;-69
2021/08/03 03:17:02;;;;;;;4.33;2.47;;;13.80;99.90;;;;;;5095756;28;20482;-69
2021/08/03 03:19:33;;;;;;;6.10;2.33;;;13.80;99.90;;;;;;5094881;28;20408;-69
2021/08/03 03:22:03;;;;;;;6.80;2.33;;;13.90;99.90;;;;;;5094261;28;20934;-69
2021/08/03 03:24:31;;;;;;;3.00;2.47;;;13.90;99.90;;;;;;5094576;28;20396;-69
2021/08/03 03:26:59;;;;;;;3.43;2.17;;;13.90;99.90;;;;;;5080347;28;20416;-69
2021/08/03 03:29:26;;;;;;;2.30;2.10;;;13.90;99.90;;;;;;5074469;28;20774;-69
2021/08/03 03:31:53;;;;;;;3.83;2.47;;;13.80;99.90;;;;;;5074119;28;20470;-69
2021/08/03 03:34:20;;;;;;;3.50;2.80;;;13.90;99.90;;;;;;5074171;28;20408;-68
2021/08/03 03:36:47;;;;;;;2.50;2.30;;;14.00;99.90;;;;;;5073906;28;20414;-70
2021/08/03 03:39:15;;;;;;;2.67;2.17;;;14.00;99.90;;;;;;5073891;28;20453;-69
2021/08/03 03:41:45;;;;;;;4.17;2.13;;;14.00;99.90;;;;;;5074175;28;20429;-68
2021/08/03 03:44:10;;;;;;;2.70;1.83;;;14.00;99.90;;;;;;5073850;28;20481;-69
2021/08/03 03:46:48;;;;;;;2.40;2.13;;;14.10;99.90;;;;;;5073978;28;20876;-69
2021/08/03 03:49:17;;;;;;;4.70;1.87;;;14.20;99.90;;;;;;5073438;28;20163;-69
2021/08/03 03:51:43;;;;;;;2.30;2.07;;;14.30;99.90;;;;;;5074160;28;20452;-69
2021/08/03 03:54:12;;;;;;;7.53;2.40;;;14.30;99.90;;;;;;5073842;28;20405;-69
2021/08/03 03:56:47;;;;;;;3.53;1.87;;;14.30;99.90;;;;;;5072700;28;20239;-69
2021/08/03 03:59:15;;;;;;;6.03;2.20;;;14.40;99.90;;;;;;5072885;28;20416;-70
2021/08/03 04:01:40;;;;;;;3.63;1.90;;;14.40;99.90;;;;;;5073605;28;20519;-70
2021/08/03 04:04:10;;;;;;;6.07;2.20;;;14.50;99.90;;;;;;5073479;28;20892;-70
2021/08/03 04:06:36;;;;;;;2.80;1.60;;;14.50;99.90;;;;;;5073586;28;20175;-68
2021/08/03 04:09:02;;;;;;;2.70;1.90;;;14.60;99.90;;;;;;5073148;28;20406;-69
2021/08/03 04:11:28;;;;;;;1.90;1.60;;;14.60;99.90;;;;;;5073421;28;20495;-70
2021/08/03 04:13:54;;;;;;;2.83;1.80;;;14.60;99.90;;;;;;5073612;28;20833;-69
2021/08/03 04:16:20;;;;;;;2.20;2.00;;;14.60;99.90;;;;;;5073360;28;20166;-69
2021/08/03 04:18:46;;;;;;;2.47;1.80;;;14.70;99.90;;;;;;5073242;28;20407;-69
2021/08/03 04:21:11;;;;;;;1.70;1.60;;;14.70;99.90;;;;;;5073337;28;20186;-69
2021/08/03 04:23:37;;;;;;;3.63;2.13;;;14.80;99.90;;;;;;5073136;28;20645;-69
2021/08/03 04:26:03;;;;;;;4.27;1.97;;;14.90;99.90;;;;;;5073127;28;20158;-68
2021/08/03 04:28:28;;;;;;;2.27;1.80;;;14.90;99.90;;;;;;5072975;28;20166;-69
2021/08/03 04:30:54;;;;;;;4.77;2.20;;;14.90;99.90;;;;;;5072824;28;20424;-69
2021/08/03 04:33:20;;;;;;;5.10;2.07;;;15.00;99.90;;;;;;5073212;28;20166;-69
2021/08/03 04:35:45;;;;;;;1.60;1.50;;;15.00;99.90;;;;;;5072792;28;20232;-69
2021/08/03 04:38:11;;;;;;;3.93;2.30;;;15.10;99.90;;;;;;5072888;28;20178;-69
2021/08/03 04:40:37;;;;;;;2.00;1.77;;;15.10;99.90;;;;;;5072664;28;20200;-69
2021/08/03 04:43:02;;;;;;;2.60;2.03;;;15.10;99.90;;;;;;5072306;28;20195;-69
2021/08/03 04:45:28;;;;;;;5.33;1.80;;;15.10;99.90;;;;;;5072818;28;20209;-69
2021/08/03 04:47:54;;;;;;;4.23;1.77;;;15.20;99.90;;;;;;5072499;28;20404;-69
2021/08/03 04:50:25;;;;;;;2.03;1.63;;;15.20;99.90;;;;;;5072553;28;20206;-68
2021/08/03 04:52:52;;;;;;;1.73;1.60;;;15.20;99.90;;;;;;5072351;28;20182;-69
2021/08/03 04:55:17;;;;;;;2.40;1.90;;;15.30;99.90;;;;;;5072548;28;20460;-69
2021/08/03 04:57:43;;;;;;;6.73;1.80;;;15.40;99.90;;;;;;5070351;28;20782;-70
2021/08/03 05:00:11;;;;;;;2.43;1.47;;;15.40;99.90;;;;;;5072370;28;20244;-69
2021/08/03 05:02:37;;;;;;;4.90;1.90;;;15.50;99.90;;;;;;5071873;28;20455;-68
2021/08/03 05:05:05;;;;;;;2.30;1.73;;;15.50;99.90;;;;;;5072183;28;20430;-68
2021/08/03 05:07:31;;;;;;;4.93;1.73;;;15.60;99.90;;;;;;5072051;28;20875;-68
2021/08/03 05:10:10;;;;;;;2.50;2.00;;;15.70;99.90;;;;;;5071958;28;20412;-69
2021/08/03 05:12:37;;;;;;;3.00;1.67;;;15.70;99.90;;;;;;5072081;28;20563;-68
2021/08/03 05:15:03;;;;;;;2.90;1.83;;;15.80;99.90;;;;;;5071872;28;20419;-69
2021/08/03 05:17:31;;;;;;;2.97;1.60;;;16.00;99.90;;;;;;5071000;28;20426;-68
2021/08/03 05:19:57;;;;;;;3.37;2.20;;;16.10;99.90;;;;;;5071642;28;20498;-67
2021/08/03 05:22:23;;;;;;;3.10;1.80;;;16.30;99.90;;;;;;5071592;28;20496;-68
2021/08/03 05:24:49;;;;;;;3.60;2.37;;;16.00;99.90;;;;;;5071695;28;20906;-68
2021/08/03 05:27:14;;;;;;;1.80;1.70;;;16.40;99.90;;;;;;5071664;28;20488;-68
2021/08/03 05:29:40;;;;;;;3.60;1.77;;;16.50;99.90;;;;;;5071604;28;20168;-68
2021/08/03 05:32:06;;;;;;;2.80;2.20;;;16.40;99.90;;;;;;5072075;28;20175;-67
2021/08/03 05:34:31;;;;;;;7.20;2.97;;;16.30;99.90;;;;;;5071905;28;20180;-69
2021/08/03 05:36:56;;;;;;;3.43;1.60;;;16.40;99.90;;;;;;5071454;28;20208;-69
2021/08/03 05:39:22;;;;;;;4.20;2.60;;;16.40;99.90;;;;;;5071598;28;20168;-68
2021/08/03 05:41:47;;;;;;;3.30;2.87;;;16.40;99.90;;;;;;5071332;28;20185;-69
2021/08/03 05:44:13;;;;;;;4.67;3.30;;;16.50;99.90;;;;;;5070009;28;20195;-69
2021/08/03 05:46:38;;;;;;;2.20;2.00;;;16.80;99.90;;;;;;5071364;28;20166;-68
2021/08/03 05:49:04;;;;;;;3.00;2.00;;;17.00;99.90;;;;;;5071345;28;20658;-69
2021/08/03 05:51:30;;;;;;;5.90;3.30;;;16.90;99.90;;;;;;5071255;28;20193;-69
2021/08/03 05:53:55;;;;;;;6.37;2.13;;;16.70;99.90;;;;;;5071494;28;20609;-68
2021/08/03 05:56:20;;;;;;;3.73;1.97;;;16.80;99.90;;;;;;5071814;28;20175;-69
2021/08/03 05:58:46;;;;;;;2.27;2.07;;;16.90;99.90;;;;;;5071339;28;20166;-69
2021/08/03 06:01:11;;;;;;;7.17;2.30;;;16.90;99.90;;;;;;5071203;28;20194;-69
2021/08/03 06:03:37;;;;;;;5.23;3.40;;;17.10;99.90;;;;;;5071446;28;20316;-68
2021/08/03 06:06:05;;;;;;;4.70;1.90;;;17.40;99.90;;;;;;5071331;28;20185;-69
2021/08/03 06:08:32;;;;;;;3.63;2.13;;;17.60;99.90;;;;;;5073799;28;20181;-69
2021/08/03 06:10:58;;;;;;;4.57;1.80;;;17.60;99.90;;;;;;5075487;28;20518;-70
2021/08/03 06:13:25;;;;;;;6.10;2.60;;;17.40;99.90;;;;;;5075633;28;20482;-69
2021/08/03 06:15:52;;;;;;;2.50;1.37;;;17.30;99.90;;;;;;5075511;28;20499;-69
2021/08/03 06:18:28;;;;;;;5.50;1.90;;;17.40;99.90;;;;;;5075353;28;20415;-69
2021/08/03 06:20:54;;;;;;;4.60;1.87;;;17.20;99.90;;;;;;5075388;28;20429;-68
2021/08/03 06:23:22;;;;;;;4.47;1.77;;;17.50;99.90;;;;;;5075264;28;20444;-72
2021/08/03 06:25:48;;;;;;;5.40;1.70;;;17.70;99.90;;;;;;5075280;28;20414;-67
2021/08/03 06:28:17;;;;;;;2.67;1.80;;;17.70;99.90;;;;;;5075177;28;20418;-68
2021/08/03 06:30:42;;;;;;;2.77;1.83;;;17.90;99.90;;;;;;5075531;28;20828;-68
2021/08/03 06:33:08;;;;;;;6.17;1.80;;;17.90;99.90;;;;;;5075136;28;20773;-68
2021/08/03 06:35:33;;;;;;;7.70;2.00;;;18.00;99.90;;;;;;5085468;28;20197;-67
2021/08/03 06:37:59;;;;;;;4.43;1.97;;;17.40;99.90;;;;;;5098988;28;20185;-69
2021/08/03 06:40:25;;;;;;;6.27;2.37;;;17.10;99.90;;;;;;5100401;28;20245;-70
2021/08/03 06:43:01;;;;;;;3.03;2.00;;;17.10;99.90;;;;;;5100487;28;20189;-68
2021/08/03 06:45:32;;;;;;;4.13;1.90;;;17.40;99.90;;;;;;5074868;28;20415;-68
2021/08/03 06:48:04;;;;;;;2.90;1.70;;;17.60;99.90;;;;;;5084647;28;20811;-68
2021/08/03 06:50:44;;;;;;;2.13;1.93;;;17.60;99.90;;;;;;5094988;28;20865;-68
2021/08/03 06:53:11;;;;;;;3.50;2.10;;;17.90;99.90;;;;;;5100571;28;20423;-68
2021/08/03 06:55:41;;;;;;;4.87;2.17;;;17.60;99.90;;;;;;5095203;28;20407;-68
2021/08/03 06:58:10;;;;;;;3.70;1.73;;;17.30;99.90;;;;;;5094609;28;20411;-68
2021/08/03 07:00:39;;;;;;;6.40;2.30;;;17.40;99.90;;;;;;5095163;28;20429;-68
2021/08/03 07:03:07;;;;;;;4.13;2.13;;;17.70;99.90;;;;;;5094903;28;20465;-68
2021/08/03 07:05:37;;;;;;;6.60;2.10;;;17.90;99.90;;;;;;5084579;28;20489;-69
2021/08/03 07:08:02;;;;;;;5.10;1.83;;;17.90;99.90;;;;;;5078281;28;20461;-68
2021/08/03 07:10:28;;;;;;;4.30;2.20;;;17.90;99.90;;;;;;5092141;28;20440;-68
2021/08/03 07:12:54;;;;;;;4.67;2.37;;;17.60;99.90;;;;;;5074546;28;20632;-69
2021/08/03 07:15:21;;;;;;;2.90;1.97;;;17.40;99.90;;;;;;5074517;28;20550;-69
2021/08/03 07:17:47;;;;;;;5.17;2.43;;;17.70;99.90;;;;;;5074153;28;20408;-69
2021/08/03 07:20:15;;;;;;;5.83;2.70;;;17.90;99.90;;;;;;5079234;28;20480;-69
2021/08/03 07:22:41;;;;;;;2.53;1.83;;;17.70;99.90;;;;;;5094302;28;20496;-68
2021/08/03 07:25:08;;;;;;;7.80;2.70;;;17.90;99.90;;;;;;5094543;28;20404;-68
2021/08/03 07:27:34;;;;;;;3.10;1.97;;;17.90;99.90;;;;;;5094203;28;20895;-68
2021/08/03 07:30:00;;;;;;;3.57;1.67;;;18.10;99.90;;;;;;5094358;28;20425;-68
2021/08/03 07:32:25;;;;;;;4.87;2.70;;;18.20;99.90;;;;;;5094152;28;20407;-68
2021/08/03 07:34:51;;;;;;;1.90;1.60;;;17.90;99.90;;;;;;5094474;28;20525;-69
2021/08/03 07:37:16;;;;;;;2.33;2.03;;;17.80;99.90;;;;;;5094758;28;20179;-69
2021/08/03 07:39:43;;;;;;;4.77;2.10;;;17.80;99.90;;;;;;5093792;28;20174;-68
2021/08/03 07:42:09;;;;;;;4.20;2.30;;;18.10;99.90;;;;;;5094159;28;20180;-69
2021/08/03 07:44:36;;;;;;;6.20;2.07;;;17.80;99.90;;;;;;5093807;28;20965;-68
2021/08/03 07:47:02;;;;;;;5.60;2.00;;;17.60;99.90;;;;;;5093726;28;20405;-68
2021/08/03 07:49:27;;;;;;;2.27;1.77;;;18.30;99.90;;;;;;5093606;28;20416;-69
2021/08/03 07:51:53;;;;;;;3.20;1.67;;;19.20;99.90;;;;;;5093863;28;20428;-69
2021/08/03 07:54:19;;;;;;;3.50;2.00;;;20.40;99.90;;;;;;5094111;28;20174;-69
2021/08/03 07:56:45;;;;;;;2.57;1.50;;;21.10;99.90;;;;;;5093960;28;20211;-68
2021/08/03 07:59:11;;;;;;;3.20;1.60;;;20.60;99.90;;;;;;5093864;28;20442;-68
2021/08/03 08:01:37;;;;;;;2.90;1.60;;;21.40;99.90;;;;;;5093796;28;20242;-69
2021/08/03 08:04:03;;;;;;;2.60;1.50;;;21.60;99.90;;;;;;5093670;28;20280;-68
2021/08/03 08:06:28;;;;;;;2.40;1.70;;;22.50;99.90;;;;;;5074585;28;20428;-69
2021/08/03 08:08:53;;;;;;;2.33;1.77;;;23.30;99.90;;;;;;5073537;28;20256;-69
2021/08/03 08:11:19;;;;;;;2.33;1.60;;;23.50;99.90;;;;;;5084610;28;20196;-68
2021/08/03 08:13:45;;;;;;;2.40;1.50;;;24.10;99.90;;;;;;5093800;28;20162;-69
2021/08/03 08:16:10;;;;;;;4.50;1.60;;;24.70;99.90;;;;;;5093263;28;20632;-69
2021/08/03 08:18:36;;;;;;;3.83;1.30;;;23.40;99.90;;;;;;5093103;28;20173;-68
2021/08/03 08:21:03;;;;;;;2.00;1.57;;;23.50;99.90;;;;;;5092754;28;20624;-70
2021/08/03 08:23:28;;;;;;;3.43;1.10;;;23.40;99.90;;;;;;5093334;28;20450;-69
2021/08/03 08:25:55;;;;;;;3.73;2.03;;;24.00;99.90;;;;;;5093143;28;20556;-70
2021/08/03 08:28:20;;;;;;;2.23;1.30;;;24.60;99.90;;;;;;5092937;28;20169;-70
2021/08/03 08:30:46;;;;;;;3.83;1.50;;;21.70;99.90;;;;;;5092308;28;20429;-69
2021/08/03 08:33:12;;;;;;;1.57;1.30;;;21.70;99.90;;;;;;5092519;28;20175;-68
2021/08/03 08:35:38;;;;;;;3.13;1.70;;;22.80;99.90;;;;;;5093151;28;20242;-68
2021/08/03 08:38:05;;;;;;;3.50;1.37;;;21.00;99.90;;;;;;5092891;28;20593;-68
2021/08/03 08:40:30;;;;;;;3.90;1.70;;;21.40;99.90;;;;;;5092968;28;20425;-69
2021/08/03 08:42:56;;;;;;;2.43;1.50;;;22.40;99.90;;;;;;5098234;28;20458;-68
2021/08/03 08:45:40;;;;;;;2.30;1.40;;;22.70;99.90;;;;;;5092834;28;20163;-69
2021/08/03 08:48:07;;;;;;;3.70;1.50;;;21.80;99.90;;;;;;5091408;28;20170;-70
2021/08/03 08:50:35;;;;;;;3.57;1.33;;;22.00;99.90;;;;;;5093601;28;20506;-76
2021/08/03 08:53:01;;;;;;;5.13;1.57;;;21.30;99.90;;;;;;5092819;28;20440;-70
2021/08/03 08:55:27;;;;;;;6.63;1.80;;;21.10;99.90;;;;;;5093477;28;20446;-72
2021/08/03 08:57:55;;;;;;;1.73;1.40;;;21.00;99.90;;;;;;5093130;28;20217;-72
2021/08/03 09:00:22;;;;;;;2.80;1.50;;;21.20;99.90;;;;;;5092915;28;20193;-71
2021/08/03 09:02:53;;;;;;;2.67;1.60;;;21.30;99.90;;;;;;5093214;28;20902;-69
2021/08/03 09:05:34;;;;;;;2.10;1.40;;;21.30;99.90;;;;;;5090819;28;20438;-68
2021/08/03 09:08:01;;;;;;;2.30;1.63;;;20.80;99.90;;;;;;5092746;28;20405;-69
2021/08/03 09:10:40;;;;;;;2.10;1.50;;;20.90;99.90;;;;;;5091253;28;20943;-66
2021/08/03 09:13:12;;;;;;;4.23;1.30;;;21.70;99.90;;;;;;5092889;28;20494;-68
2021/08/03 09:15:43;;;;;;;2.70;1.40;;;21.80;99.90;;;;;;5092645;28;20751;-69
2021/08/03 09:18:14;;;;;;;2.10;1.70;;;21.10;99.90;;;;;;5092481;28;20493;-68
2021/08/03 09:20:41;;;;;;;2.40;1.80;;;21.10;99.90;;;;;;5087749;28;20474;-69
2021/08/03 09:23:08;;;;;;;3.67;1.83;;;21.60;99.90;;;;;;5086665;28;20455;-69
2021/08/03 09:25:33;;;;;;;3.33;1.70;;;20.80;99.90;;;;;;5072096;28;20404;-68
2021/08/03 09:28:07;;;;;;;5.90;1.60;;;21.20;99.90;;;;;;5073815;28;20411;-68
2021/08/03 09:30:35;;;;;;;2.43;1.37;;;21.60;99.90;;;;;;5091278;28;20178;-69
2021/08/03 09:33:04;;;;;;;1.77;1.50;;;22.50;99.90;;;;;;5092405;28;20413;-69
2021/08/03 09:35:30;;;;;;;4.50;1.40;;;22.70;99.90;;;;;;5074178;28;20467;-68
2021/08/03 09:38:03;;;;;;;3.27;1.20;;;23.70;99.90;;;;;;5088167;28;20833;-69
2021/08/03 09:40:36;;;;;;;2.97;1.33;;;23.30;99.90;;;;;;5070689;28;21131;-68
2021/08/03 09:43:06;;;;;;;1.37;1.07;;;23.10;99.90;;;;;;5079172;28;20457;-68
2021/08/03 09:46:00;;;;;;;3.30;1.30;;;22.40;99.90;;;;;;5080850;28;20529;-69
2021/08/03 09:48:29;;;;;;;2.83;1.03;;;22.20;99.90;;;;;;5072440;28;21010;-69
2021/08/03 09:51:00;;;;;;;2.50;1.27;;;23.10;99.90;;;;;;5088464;28;20414;-69
2021/08/03 09:53:48;;;;;;;1.00;0.90;;;21.70;99.90;;;;;;5091574;28;20422;-69
2021/08/03 09:56:35;;;;;;;1.30;1.20;;;23.30;99.90;;;;;;5091932;28;20434;-69
2021/08/03 09:59:06;;;;;;;2.77;1.10;;;23.40;99.90;;;;;;5089198;28;20415;-68
2021/08/03 10:01:34;;;;;;;3.00;1.20;;;23.70;99.90;;;;;;5077559;28;20458;-69
2021/08/03 10:04:03;;;;;;;5.53;2.50;;;24.50;99.90;;;;;;5090794;28;20455;-68
2021/08/03 10:06:30;;;;;;;1.30;1.20;;;23.90;99.90;;;;;;5091870;28;20484;-68
2021/08/03 10:09:02;;;;;;;1.40;1.00;;;23.30;99.90;;;;;;5091676;28;20435;-70
2021/08/03 10:11:28;;;;;;;1.90;1.30;;;23.60;99.90;;;;;;5091687;28;20423;-68
2021/08/03 10:13:55;;;;;;;1.80;1.70;;;24.30;99.90;;;;;;5072630;28;20410;-69
2021/08/03 10:16:21;;;;;;;2.80;1.60;;;24.40;99.90;;;;;;5071754;28;20177;-68
2021/08/03 10:18:49;;;;;;;5.10;2.10;;;23.60;99.90;;;;;;5076485;28;20900;-68
2021/08/03 10:21:28;;;;;;;7.50;4.80;;;24.40;99.90;;;;;;5071360;28;20520;-68
2021/08/03 10:24:02;;;;;;;1.80;1.53;;;24.00;99.90;;;;;;5071682;28;20490;-68
2021/08/03 10:26:34;;;;;;;2.30;1.60;;;22.50;99.90;;;;;;5070608;28;20825;-69
2021/08/03 10:29:22;;;;;;;1.73;1.40;;;21.10;99.90;;;;;;5071460;28;20418;-68
2021/08/03 10:31:51;;;;;;;1.67;1.37;;;21.10;99.90;;;;;;5071188;28;20424;-68
2021/08/03 10:34:42;;;;;;;3.40;1.37;;;21.40;99.90;;;;;;5071624;28;20410;-68
2021/08/03 10:37:11;;;;;;;1.63;1.53;;;21.60;99.90;;;;;;5071430;28;20418;-69
2021/08/03 10:39:49;;;;;;;1.67;1.57;;;22.00;99.90;;;;;;5071085;28;20457;-70
2021/08/03 10:42:15;;;;;;;1.60;1.33;;;22.10;99.90;;;;;;5073329;28;20418;-69
2021/08/03 10:44:43;;;;;;;2.60;1.20;;;20.90;99.90;;;;;;5090269;28;20415;-69
2021/08/03 10:47:36;;;;;;;2.03;1.40;;;20.80;99.90;;;;;;5091253;28;20177;-69
2021/08/03 10:50:10;;;;;;;2.87;2.00;;;21.00;99.90;;;;;;5091163;28;20478;-69
2021/08/03 10:52:48;;;;;;;2.47;1.40;;;22.00;99.90;;;;;;5090877;28;20404;-68
2021/08/03 10:55:55;;;;;;;1.40;1.30;;;22.70;99.90;;;;;;5091973;28;20440;-68
2021/08/03 10:58:20;;;;;;;1.50;1.00;;;23.10;99.90;;;;;;5091457;28;20852;-69
2021/08/03 11:01:02;;;;;;;1.60;1.40;;;22.80;99.90;;;;;;5094906;28;20421;-68
2021/08/03 11:03:34;;;;;;;2.77;1.40;;;22.00;99.90;;;;;;5087369;28;20198;-68
2021/08/03 11:06:14;;;;;;;3.20;2.73;;;22.50;99.90;;;;;;5095114;28;20423;-69
2021/08/03 11:08:39;;;;;;;3.50;3.20;;;23.00;99.90;;;;;;5093125;28;20500;-68
2021/08/03 11:11:13;;;;;;;3.13;1.23;;;23.40;99.90;;;;;;5093861;28;20979;-69
2021/08/03 11:13:51;;;;;;;2.83;1.90;;;22.80;99.90;;;;;;5092772;28;20539;-69
2021/08/03 11:16:19;;;;;;;4.50;1.80;;;22.80;99.90;;;;;;5094871;28;20420;-68
2021/08/03 11:18:52;;;;;;;2.27;1.30;;;23.20;99.90;;;;;;5094857;28;20477;-68
2021/08/03 11:21:19;;;;;;;2.30;2.10;;;23.10;99.90;;;;;;5094363;28;20497;-69
2021/08/03 11:24:00;;;;;;;1.83;1.73;;;23.00;99.90;;;;;;5094379;28;20464;-68
2021/08/03 11:26:31;;;;;;;3.53;1.40;;;22.80;99.90;;;;;;5091253;28;20402;-69
2021/08/03 11:29:00;;;;;;;3.10;1.70;;;22.30;99.90;;;;;;5093848;28;20428;-69
2021/08/03 11:31:56;;;;;;;1.87;1.50;;;22.40;99.90;;;;;;5094453;28;20463;-69
2021/08/03 11:34:29;;;;;;;1.63;1.10;;;22.50;99.90;;;;;;5094168;28;20440;-68
2021/08/03 11:36:58;;;;;;;2.13;1.50;;;22.70;99.90;;;;;;5090513;28;20422;-68
2021/08/03 11:39:30;;;;;;;2.50;1.43;;;23.40;99.90;;;;;;5087319;28;20764;-69
2021/08/03 11:41:56;;;;;;;3.40;1.90;;;23.80;99.90;;;;;;5093492;28;20420;-69
2021/08/03 11:44:22;;;;;;;2.30;1.30;;;23.10;99.90;;;;;;5093464;28;20558;-69
2021/08/03 11:47:06;;;;;;;2.03;1.60;;;22.80;99.90;;;;;;5090301;28;20182;-68
2021/08/03 11:49:38;;;;;;;1.60;1.50;;;22.80;99.90;;;;;;5093743;28;20415;-68
2021/08/03 11:52:06;;;;;;;3.10;1.70;;;23.40;99.90;;;;;;5093500;28;20835;-68
2021/08/03 11:54:31;;;;;;;4.13;1.80;;;23.70;99.90;;;;;;5093101;28;20407;-68
2021/08/03 11:56:57;;;;;;;3.13;2.13;;;23.20;98.70;;;;;;5093361;28;20437;-68
2021/08/03 11:59:32;;;;;;;2.63;1.80;;;23.60;99.40;;;;;;5093377;28;20185;-69
2021/08/03 12:01:57;;;;;;;1.87;1.53;;;23.80;99.00;;;;;;5093006;28;20194;-69
2021/08/03 12:04:23;;;;;;;2.60;1.50;;;23.60;99.80;;;;;;5093150;28;20453;-67
2021/08/03 12:06:50;;;;;;;3.77;2.30;;;23.80;99.10;;;;;;5092674;28;20177;-69
2021/08/03 12:09:20;;;;;;;1.83;1.40;;;23.70;99.50;;;;;;5093499;28;20403;-68
2021/08/03 12:11:57;;;;;;;3.20;1.53;;;23.60;99.50;;;;;;5092805;28;20426;-68
2021/08/03 12:14:32;;;;;;;1.40;1.30;;;23.40;99.10;;;;;;5093417;28;20791;-69
2021/08/03 12:16:58;;;;;;;1.77;1.63;;;23.30;99.90;;;;;;5093099;28;20931;-69
2021/08/03 12:19:42;;;;;;;1.50;1.40;;;23.20;99.90;;;;;;5092940;28;20519;-68
2021/08/03 12:22:27;;;;;;;4.20;1.40;;;23.50;99.60;;;;;;5092210;28;20173;-69
2021/08/03 12:25:01;;;;;;;2.00;1.90;;;23.50;99.20;;;;;;5093062;28;20399;-68
2021/08/03 12:27:37;;;;;;;2.70;1.43;;;24.00;98.90;;;;;;5092492;28;20904;-69
2021/08/03 12:30:04;;;;;;;2.10;1.70;;;23.80;99.10;;;;;;5092542;28;20418;-69
2021/08/03 12:32:40;;;;;;;2.27;1.60;;;23.80;98.70;;;;;;5092652;28;20733;-68
2021/08/03 12:35:13;;;;;;;2.87;1.90;;;24.00;97.90;;;;;;5092435;28;20398;-68
2021/08/03 12:37:39;;;;;;;4.17;1.80;;;24.10;96.40;;;;;;5086560;28;20486;-69
2021/08/03 12:40:32;;;;;;;1.87;1.77;;;23.50;96.70;;;;;;5091261;28;20422;-68
2021/08/03 12:42:59;;;;;;;1.97;1.60;;;23.10;97.10;;;;;;5092278;28;20444;-69
2021/08/03 12:45:25;;;;;;;1.73;1.60;;;23.20;98.00;;;;;;5089243;28;20905;-69
2021/08/03 12:48:09;;;;;;;2.10;1.47;;;23.20;98.00;;;;;;5092559;28;20410;-68
2021/08/03 12:50:49;;;;;;;4.37;1.60;;;23.50;98.10;;;;;;5092543;28;20429;-69
2021/08/03 12:53:30;;;;;;;2.93;1.67;;;23.80;97.80;;;;;;5092265;28;20419;-70
2021/08/03 12:56:15;;;;;;;1.97;1.43;;;24.10;98.10;;;;;;5092070;28;20414;-71
2021/08/03 12:58:43;;;;;;;2.70;1.73;;;24.10;95.90;;;;;;5092021;28;20419;-68
2021/08/03 13:01:18;;;;;;;1.70;1.60;;;23.90;95.90;;;;;;5092824;28;20532;-69